MSC294 HECA-HEGN
Flight info
| Callsign | MSC294 |
|---|---|
| Flight time | 0h 43m |
| Altitude | 27000 |
| Route | CVO L315 HGD |
| Aircraft | A320/M-SDE3FGHIRWY/LB1 |
Departure
| Time | 2026-05-05 17:20 |
|---|---|
| Airport | Cairo International Airport (HECA) |
Arrival
| Time | 2026-05-05 18:03 |
|---|---|
| Airport | Hurghada International Airport (HEGN) |
| Time | Latitude | Longitude | Altitude | Speed | Heading |
|---|---|---|---|---|---|
| 2026-05-05 17:01 | 30.10769 | 31.39191 | 374 ft | 0 kts | 75° |
| 2026-05-05 17:09 | 30.10767 | 31.39182 | 374 ft | 4 kts | 76° |
| 2026-05-05 17:09 | 30.10761 | 31.39151 | 374 ft | 4 kts | 80° |
| 2026-05-05 17:09 | 30.10757 | 31.39121 | 374 ft | 4 kts | 88° |
| 2026-05-05 17:10 | 30.10759 | 31.39090 | 374 ft | 4 kts | 115° |
| 2026-05-05 17:10 | 30.10770 | 31.39075 | 374 ft | 1 kts | 165° |
| 2026-05-05 17:10 | 30.10773 | 31.39074 | 374 ft | 2 kts | 165° |
| 2026-05-05 17:12 | 30.10738 | 31.39085 | 374 ft | 14 kts | 165° |
| 2026-05-05 17:12 | 30.10619 | 31.39121 | 374 ft | 18 kts | 165° |
| 2026-05-05 17:12 | 30.10522 | 31.39177 | 374 ft | 15 kts | 102° |
| 2026-05-05 17:13 | 30.10549 | 31.39296 | 374 ft | 17 kts | 74° |
| 2026-05-05 17:13 | 30.10583 | 31.39446 | 374 ft | 20 kts | 75° |
| 2026-05-05 17:13 | 30.10622 | 31.39607 | 374 ft | 21 kts | 75° |
| 2026-05-05 17:13 | 30.10602 | 31.39730 | 374 ft | 16 kts | 159° |
| 2026-05-05 17:14 | 30.10497 | 31.39764 | 374 ft | 15 kts | 165° |
| 2026-05-05 17:14 | 30.10400 | 31.39793 | 374 ft | 14 kts | 167° |
| 2026-05-05 17:14 | 30.10325 | 31.39754 | 374 ft | 14 kts | 231° |
| 2026-05-05 17:14 | 30.10266 | 31.39674 | 374 ft | 12 kts | 229° |
| 2026-05-05 17:15 | 30.10214 | 31.39606 | 374 ft | 11 kts | 228° |
| 2026-05-05 17:15 | 30.10158 | 31.39571 | 374 ft | 9 kts | 170° |
| 2026-05-05 17:15 | 30.10113 | 31.39608 | 374 ft | 7 kts | 140° |
| 2026-05-05 17:15 | 30.10077 | 31.39643 | 374 ft | 6 kts | 139° |
| 2026-05-05 17:16 | 30.10048 | 31.39672 | 374 ft | 5 kts | 139° |
| 2026-05-05 17:16 | 30.10031 | 31.39690 | 374 ft | 1 kts | 135° |
| 2026-05-05 17:18 | 30.10023 | 31.39699 | 374 ft | 3 kts | 133° |
| 2026-05-05 17:18 | 30.10001 | 31.39765 | 374 ft | 13 kts | 94° |
| 2026-05-05 17:18 | 30.10010 | 31.39869 | 372 ft | 14 kts | 80° |
| 2026-05-05 17:18 | 30.10056 | 31.39943 | 370 ft | 7 kts | 49° |
| 2026-05-05 17:19 | 30.10090 | 31.39988 | 372 ft | 11 kts | 49° |
| 2026-05-05 17:19 | 30.10241 | 31.40184 | 374 ft | 66 kts | 48° |
| 2026-05-05 17:19 | 30.10688 | 31.40776 | 372 ft | 128 kts | 49° |
| 2026-05-05 17:19 | 30.11395 | 31.41723 | 408 ft | 173 kts | 46° |
| 2026-05-05 17:20 | 30.12134 | 31.42760 | 1097 ft | 166 kts | 48° |
| 2026-05-05 17:20 | 30.12526 | 31.44035 | 1726 ft | 179 kts | 88° |
| 2026-05-05 17:20 | 30.12090 | 31.45419 | 2231 ft | 200 kts | 127° |
| 2026-05-05 17:20 | 30.10888 | 31.46367 | 2517 ft | 225 kts | 164° |
| 2026-05-05 17:21 | 30.09306 | 31.46882 | 2916 ft | 248 kts | 166° |
| 2026-05-05 17:21 | 30.07567 | 31.47469 | 3367 ft | 272 kts | 165° |
| 2026-05-05 17:21 | 30.05706 | 31.48098 | 4103 ft | 281 kts | 165° |
| 2026-05-05 17:22 | 30.01935 | 31.49396 | 6062 ft | 284 kts | 165° |
| 2026-05-05 17:22 | 30.00050 | 31.50062 | 7008 ft | 284 kts | 165° |
| 2026-05-05 17:22 | 29.98152 | 31.50749 | 7839 ft | 288 kts | 165° |
| 2026-05-05 17:22 | 29.96221 | 31.51466 | 8652 ft | 294 kts | 165° |
| 2026-05-05 17:23 | 29.94269 | 31.52209 | 9494 ft | 298 kts | 165° |
| 2026-05-05 17:23 | 29.92306 | 31.53071 | 10247 ft | 309 kts | 156° |
| 2026-05-05 17:23 | 29.90457 | 31.54534 | 10518 ft | 336 kts | 146° |
| 2026-05-05 17:23 | 29.88523 | 31.56210 | 10770 ft | 358 kts | 146° |
| 2026-05-05 17:24 | 29.86492 | 31.57945 | 11319 ft | 368 kts | 147° |
| 2026-05-05 17:24 | 29.84388 | 31.59731 | 11990 ft | 374 kts | 147° |
| 2026-05-05 17:24 | 29.82303 | 31.61496 | 12676 ft | 379 kts | 147° |
| 2026-05-05 17:24 | 29.80134 | 31.63336 | 13374 ft | 385 kts | 148° |
| 2026-05-05 17:25 | 29.77968 | 31.65177 | 14030 ft | 391 kts | 148° |
| 2026-05-05 17:25 | 29.76517 | 31.66412 | 14425 ft | 394 kts | 148° |
| 2026-05-05 17:25 | 29.73546 | 31.68935 | 15268 ft | 399 kts | 148° |
| 2026-05-05 17:25 | 29.71308 | 31.70837 | 15903 ft | 402 kts | 148° |
| 2026-05-05 17:26 | 29.69053 | 31.72755 | 16528 ft | 406 kts | 148° |
| 2026-05-05 17:26 | 29.66774 | 31.74694 | 17133 ft | 409 kts | 149° |
| 2026-05-05 17:26 | 29.64471 | 31.76651 | 17752 ft | 413 kts | 149° |
| 2026-05-05 17:26 | 29.62150 | 31.78620 | 18368 ft | 416 kts | 149° |
| 2026-05-05 17:27 | 29.59810 | 31.80602 | 18908 ft | 420 kts | 149° |
| 2026-05-05 17:27 | 29.57450 | 31.82602 | 19449 ft | 423 kts | 149° |
| 2026-05-05 17:27 | 29.55076 | 31.84610 | 19998 ft | 426 kts | 149° |
| 2026-05-05 17:27 | 29.52679 | 31.86632 | 20555 ft | 428 kts | 149° |
| 2026-05-05 17:28 | 29.50272 | 31.88663 | 21102 ft | 432 kts | 149° |
| 2026-05-05 17:28 | 29.47840 | 31.90717 | 21628 ft | 435 kts | 149° |
| 2026-05-05 17:28 | 29.45395 | 31.92784 | 22151 ft | 438 kts | 149° |
| 2026-05-05 17:28 | 29.42931 | 31.94866 | 22658 ft | 441 kts | 150° |
| 2026-05-05 17:29 | 29.40452 | 31.96958 | 23164 ft | 444 kts | 150° |
| 2026-05-05 17:29 | 29.37954 | 31.99062 | 23636 ft | 447 kts | 150° |
| 2026-05-05 17:29 | 29.35436 | 32.01180 | 24031 ft | 450 kts | 150° |
| 2026-05-05 17:29 | 29.32914 | 32.03306 | 24426 ft | 452 kts | 150° |
| 2026-05-05 17:30 | 29.30376 | 32.05448 | 24829 ft | 454 kts | 150° |
| 2026-05-05 17:30 | 29.27852 | 32.07579 | 25203 ft | 456 kts | 150° |
| 2026-05-05 17:30 | 29.25285 | 32.09739 | 25580 ft | 458 kts | 150° |
| 2026-05-05 17:30 | 29.22709 | 32.11897 | 25938 ft | 461 kts | 150° |
| 2026-05-05 17:31 | 29.20113 | 32.14069 | 26312 ft | 463 kts | 150° |
| 2026-05-05 17:31 | 29.17507 | 32.16249 | 26671 ft | 465 kts | 150° |
| 2026-05-05 17:31 | 29.14892 | 32.18437 | 26985 ft | 467 kts | 150° |
| 2026-05-05 17:31 | 29.12270 | 32.20636 | 27059 ft | 464 kts | 150° |
| 2026-05-05 17:32 | 29.09685 | 32.22813 | 27074 ft | 460 kts | 150° |
| 2026-05-05 17:32 | 29.07106 | 32.24977 | 27073 ft | 459 kts | 150° |
| 2026-05-05 17:32 | 29.05372 | 32.26424 | 27068 ft | 458 kts | 150° |
| 2026-05-05 17:32 | 29.02792 | 32.28578 | 27069 ft | 458 kts | 150° |
| 2026-05-05 17:33 | 29.00220 | 32.30723 | 27067 ft | 458 kts | 150° |
| 2026-05-05 17:33 | 28.97647 | 32.32868 | 27072 ft | 458 kts | 150° |
| 2026-05-05 17:33 | 28.95080 | 32.35008 | 27072 ft | 457 kts | 150° |
| 2026-05-05 17:33 | 28.92508 | 32.37156 | 27071 ft | 457 kts | 150° |
| 2026-05-05 17:34 | 28.89941 | 32.39301 | 27073 ft | 458 kts | 150° |
| 2026-05-05 17:34 | 28.87372 | 32.41439 | 27068 ft | 457 kts | 150° |
| 2026-05-05 17:34 | 28.84801 | 32.43577 | 27067 ft | 457 kts | 150° |
| 2026-05-05 17:34 | 28.82245 | 32.45707 | 27065 ft | 456 kts | 150° |
| 2026-05-05 17:35 | 28.79684 | 32.47843 | 27065 ft | 456 kts | 150° |
| 2026-05-05 17:35 | 28.77120 | 32.49975 | 27057 ft | 456 kts | 150° |
| 2026-05-05 17:35 | 28.74553 | 32.52104 | 27052 ft | 456 kts | 150° |
| 2026-05-05 17:35 | 28.71993 | 32.54223 | 27054 ft | 456 kts | 150° |
| 2026-05-05 17:36 | 28.69427 | 32.56343 | 27052 ft | 456 kts | 150° |
| 2026-05-05 17:36 | 28.66861 | 32.58462 | 27052 ft | 456 kts | 150° |
| 2026-05-05 17:36 | 28.64289 | 32.60586 | 27049 ft | 456 kts | 150° |
| 2026-05-05 17:36 | 28.61727 | 32.62705 | 27048 ft | 456 kts | 150° |
| 2026-05-05 17:37 | 28.59163 | 32.64824 | 27049 ft | 456 kts | 150° |
| 2026-05-05 17:37 | 28.56565 | 32.66970 | 27044 ft | 456 kts | 150° |
| 2026-05-05 17:37 | 28.54002 | 32.69086 | 27043 ft | 455 kts | 150° |
| 2026-05-05 17:37 | 28.51435 | 32.71206 | 27043 ft | 455 kts | 150° |
| 2026-05-05 17:38 | 28.48873 | 32.73321 | 27043 ft | 455 kts | 150° |
| 2026-05-05 17:38 | 28.46310 | 32.75435 | 27045 ft | 455 kts | 150° |
| 2026-05-05 17:38 | 28.43745 | 32.77550 | 27043 ft | 455 kts | 150° |
| 2026-05-05 17:38 | 28.41186 | 32.79660 | 27047 ft | 455 kts | 150° |
| 2026-05-05 17:39 | 28.38625 | 32.81770 | 27044 ft | 454 kts | 150° |
| 2026-05-05 17:39 | 28.36063 | 32.83873 | 27041 ft | 454 kts | 150° |
| 2026-05-05 17:39 | 28.33504 | 32.85972 | 27042 ft | 454 kts | 150° |
| 2026-05-05 17:39 | 28.30944 | 32.88071 | 27037 ft | 454 kts | 150° |
| 2026-05-05 17:40 | 28.28385 | 32.90171 | 27035 ft | 454 kts | 150° |
| 2026-05-05 17:40 | 28.25832 | 32.92263 | 27034 ft | 453 kts | 150° |
| 2026-05-05 17:40 | 28.23278 | 32.94360 | 27031 ft | 453 kts | 150° |
| 2026-05-05 17:40 | 28.20721 | 32.96458 | 27026 ft | 453 kts | 150° |
| 2026-05-05 17:41 | 28.18171 | 32.98550 | 27022 ft | 453 kts | 150° |
| 2026-05-05 17:41 | 28.15623 | 33.00638 | 27021 ft | 452 kts | 150° |
| 2026-05-05 17:41 | 28.13069 | 33.02727 | 27016 ft | 452 kts | 150° |
| 2026-05-05 17:41 | 28.10524 | 33.04809 | 27015 ft | 452 kts | 150° |
| 2026-05-05 17:42 | 28.07981 | 33.06888 | 27008 ft | 452 kts | 150° |
| 2026-05-05 17:42 | 28.05428 | 33.08971 | 27006 ft | 451 kts | 150° |
| 2026-05-05 17:42 | 28.02881 | 33.11048 | 27006 ft | 452 kts | 150° |
| 2026-05-05 17:42 | 28.00328 | 33.13128 | 26864 ft | 451 kts | 150° |
| 2026-05-05 17:43 | 27.97783 | 33.15199 | 26612 ft | 449 kts | 150° |
| 2026-05-05 17:43 | 27.95249 | 33.17256 | 26358 ft | 448 kts | 150° |
| 2026-05-05 17:43 | 27.92723 | 33.19306 | 26109 ft | 446 kts | 150° |
| 2026-05-05 17:43 | 27.90218 | 33.21337 | 25602 ft | 442 kts | 150° |
| 2026-05-05 17:44 | 27.87695 | 33.23383 | 25002 ft | 439 kts | 150° |
| 2026-05-05 17:44 | 27.85214 | 33.25393 | 24431 ft | 437 kts | 150° |
| 2026-05-05 17:44 | 27.82746 | 33.27392 | 23877 ft | 435 kts | 150° |
| 2026-05-05 17:44 | 27.80291 | 33.29382 | 23290 ft | 434 kts | 150° |
| 2026-05-05 17:45 | 27.77853 | 33.31358 | 22761 ft | 429 kts | 150° |
| 2026-05-05 17:45 | 27.75440 | 33.33314 | 22256 ft | 425 kts | 150° |
| 2026-05-05 17:45 | 27.73054 | 33.35245 | 21770 ft | 421 kts | 150° |
| 2026-05-05 17:45 | 27.70685 | 33.37165 | 21288 ft | 417 kts | 149° |
| 2026-05-05 17:46 | 27.68335 | 33.39066 | 20806 ft | 414 kts | 150° |
| 2026-05-05 17:46 | 27.66002 | 33.40946 | 20315 ft | 411 kts | 149° |
| 2026-05-05 17:46 | 27.63675 | 33.42819 | 19823 ft | 409 kts | 149° |
| 2026-05-05 17:46 | 27.61362 | 33.44681 | 19324 ft | 407 kts | 149° |
| 2026-05-05 17:47 | 27.59063 | 33.46532 | 18820 ft | 406 kts | 149° |
| 2026-05-05 17:47 | 27.56770 | 33.48375 | 18307 ft | 405 kts | 149° |
| 2026-05-05 17:47 | 27.54479 | 33.50215 | 17739 ft | 404 kts | 149° |
| 2026-05-05 17:47 | 27.52180 | 33.52017 | 17225 ft | 399 kts | 153° |
| 2026-05-05 17:48 | 27.49735 | 33.53402 | 16725 ft | 391 kts | 162° |
| 2026-05-05 17:48 | 27.47245 | 33.54611 | 16216 ft | 388 kts | 161° |
| 2026-05-05 17:48 | 27.44771 | 33.55812 | 15715 ft | 386 kts | 162° |
| 2026-05-05 17:48 | 27.42315 | 33.57003 | 15216 ft | 383 kts | 161° |
| 2026-05-05 17:49 | 27.39879 | 33.58184 | 14732 ft | 380 kts | 161° |
| 2026-05-05 17:49 | 27.37458 | 33.59359 | 14237 ft | 378 kts | 161° |
| 2026-05-05 17:49 | 27.35023 | 33.60447 | 13736 ft | 373 kts | 168° |
| 2026-05-05 17:49 | 27.32529 | 33.61202 | 13202 ft | 370 kts | 169° |
| 2026-05-05 17:50 | 27.30055 | 33.61934 | 12712 ft | 366 kts | 169° |
| 2026-05-05 17:50 | 27.27600 | 33.62661 | 12212 ft | 363 kts | 169° |
| 2026-05-05 17:50 | 27.25139 | 33.63391 | 11709 ft | 360 kts | 169° |
| 2026-05-05 17:50 | 27.22752 | 33.64098 | 11215 ft | 358 kts | 169° |
| 2026-05-05 17:51 | 27.20323 | 33.64820 | 10697 ft | 355 kts | 169° |
| 2026-05-05 17:51 | 27.17960 | 33.65523 | 10449 ft | 345 kts | 169° |
| 2026-05-05 17:51 | 27.15685 | 33.66203 | 10330 ft | 332 kts | 169° |
| 2026-05-05 17:51 | 27.13498 | 33.66860 | 10210 ft | 319 kts | 169° |
| 2026-05-05 17:52 | 27.11390 | 33.67491 | 10077 ft | 308 kts | 169° |
| 2026-05-05 17:52 | 27.09335 | 33.68101 | 9787 ft | 304 kts | 169° |
| 2026-05-05 17:52 | 27.07294 | 33.68701 | 9382 ft | 303 kts | 169° |
| 2026-05-05 17:52 | 27.05261 | 33.69296 | 8998 ft | 301 kts | 169° |
| 2026-05-05 17:53 | 27.03242 | 33.69891 | 8596 ft | 299 kts | 169° |
| 2026-05-05 17:53 | 27.01234 | 33.70483 | 8213 ft | 298 kts | 168° |
| 2026-05-05 17:53 | 26.99242 | 33.71070 | 7824 ft | 296 kts | 168° |
| 2026-05-05 17:53 | 26.97261 | 33.71655 | 7437 ft | 294 kts | 168° |
| 2026-05-05 17:54 | 26.95283 | 33.72239 | 7042 ft | 292 kts | 168° |
| 2026-05-05 17:54 | 26.93325 | 33.72816 | 6665 ft | 291 kts | 168° |
| 2026-05-05 17:54 | 26.91370 | 33.73391 | 6276 ft | 289 kts | 167° |
| 2026-05-05 17:54 | 26.89561 | 33.74332 | 5957 ft | 288 kts | 145° |
| 2026-05-05 17:55 | 26.88215 | 33.75948 | 5715 ft | 282 kts | 121° |
| 2026-05-05 17:55 | 26.87541 | 33.77966 | 5485 ft | 274 kts | 97° |
| 2026-05-05 17:55 | 26.87587 | 33.80049 | 5250 ft | 263 kts | 74° |
| 2026-05-05 17:55 | 26.88265 | 33.81893 | 5040 ft | 250 kts | 52° |
| 2026-05-05 17:56 | 26.89400 | 33.83281 | 4833 ft | 236 kts | 32° |
| 2026-05-05 17:56 | 26.90794 | 33.84132 | 4646 ft | 223 kts | 14° |
| 2026-05-05 17:56 | 26.92280 | 33.84454 | 4462 ft | 213 kts | 1° |
| 2026-05-05 17:56 | 26.93732 | 33.84603 | 4284 ft | 206 kts | 1° |
| 2026-05-05 17:57 | 26.95138 | 33.84755 | 4115 ft | 200 kts | 1° |
| 2026-05-05 17:57 | 26.96496 | 33.84906 | 3981 ft | 190 kts | 1° |
| 2026-05-05 17:57 | 26.97774 | 33.84965 | 3800 ft | 177 kts | 351° |
| 2026-05-05 17:57 | 26.98943 | 33.84685 | 3570 ft | 169 kts | 343° |
| 2026-05-05 17:58 | 27.00061 | 33.84356 | 3339 ft | 162 kts | 342° |
| 2026-05-05 17:58 | 27.01132 | 33.84042 | 3122 ft | 156 kts | 342° |
| 2026-05-05 17:58 | 27.02158 | 33.83740 | 2921 ft | 149 kts | 342° |
| 2026-05-05 17:58 | 27.03151 | 33.83447 | 2720 ft | 146 kts | 342° |
| 2026-05-05 17:59 | 27.04115 | 33.83164 | 2515 ft | 141 kts | 342° |
| 2026-05-05 17:59 | 27.05035 | 33.82893 | 2341 ft | 130 kts | 342° |
| 2026-05-05 17:59 | 27.05894 | 33.82641 | 2174 ft | 126 kts | 342° |
| 2026-05-05 17:59 | 27.06748 | 33.82388 | 2019 ft | 125 kts | 342° |
| 2026-05-05 18:00 | 27.07583 | 33.82141 | 1844 ft | 124 kts | 343° |
| 2026-05-05 18:00 | 27.08413 | 33.81898 | 1674 ft | 123 kts | 343° |
| 2026-05-05 18:00 | 27.09240 | 33.81654 | 1505 ft | 123 kts | 343° |
| 2026-05-05 18:00 | 27.10075 | 33.81407 | 1352 ft | 125 kts | 340° |
| 2026-05-05 18:01 | 27.10913 | 33.81160 | 1194 ft | 124 kts | 342° |
| 2026-05-05 18:01 | 27.11749 | 33.80914 | 1027 ft | 124 kts | 342° |
| 2026-05-05 18:01 | 27.12590 | 33.80664 | 854 ft | 126 kts | 343° |
| 2026-05-05 18:01 | 27.13431 | 33.80404 | 701 ft | 125 kts | 342° |
| 2026-05-05 18:02 | 27.14275 | 33.80161 | 507 ft | 125 kts | 344° |
| 2026-05-05 18:02 | 27.15111 | 33.79922 | 321 ft | 124 kts | 343° |
| 2026-05-05 18:02 | 27.15945 | 33.79675 | 167 ft | 123 kts | 343° |
| 2026-05-05 18:02 | 27.16730 | 33.79440 | 112 ft | 101 kts | 345° |
| 2026-05-05 18:03 | 27.17314 | 33.79267 | 104 ft | 75 kts | 345° |
| 2026-05-05 18:03 | 27.17762 | 33.79135 | 98 ft | 59 kts | 345° |
| 2026-05-05 18:03 | 27.18112 | 33.79030 | 100 ft | 44 kts | 345° |
| 2026-05-05 18:03 | 27.18380 | 33.79006 | 101 ft | 35 kts | 9° |
| 2026-05-05 18:04 | 27.18603 | 33.79062 | 97 ft | 32 kts | 9° |
| 2026-05-05 18:04 | 27.18810 | 33.79023 | 91 ft | 30 kts | 344° |
| 2026-05-05 18:04 | 27.18939 | 33.79053 | 84 ft | 20 kts | 90° |
| 2026-05-05 18:04 | 27.18978 | 33.79208 | 72 ft | 24 kts | 71° |
| 2026-05-05 18:05 | 27.19032 | 33.79416 | 59 ft | 31 kts | 74° |
| 2026-05-05 18:05 | 27.19083 | 33.79624 | 57 ft | 23 kts | 76° |
| 2026-05-05 18:05 | 27.19128 | 33.79802 | 56 ft | 24 kts | 75° |
| 2026-05-05 18:05 | 27.19158 | 33.79953 | 61 ft | 18 kts | 75° |
| 2026-05-05 18:06 | 27.19156 | 33.80051 | 55 ft | 8 kts | 147° |
| 2026-05-05 18:06 | 27.19137 | 33.80060 | 54 ft | 9 kts | 161° |
| 2026-05-05 18:06 | 27.19040 | 33.80088 | 55 ft | 12 kts | 165° |
| 2026-05-05 18:06 | 27.18966 | 33.80111 | 58 ft | 10 kts | 165° |
| 2026-05-05 18:07 | 27.18900 | 33.80131 | 57 ft | 9 kts | 165° |
| 2026-05-05 18:07 | 27.18841 | 33.80148 | 54 ft | 9 kts | 165° |
| 2026-05-05 18:07 | 27.18785 | 33.80167 | 57 ft | 7 kts | 145° |
| 2026-05-05 18:07 | 27.18789 | 33.80214 | 53 ft | 6 kts | 77° |
| 2026-05-05 18:08 | 27.18798 | 33.80254 | 57 ft | 4 kts | 75° |
| 2026-05-05 18:08 | 27.18802 | 33.80268 | 56 ft | 0 kts | 75° |
| 2026-05-05 18:15 | 27.18802 | 33.80267 | 56 ft | 0 kts | 75° |
| 2026-05-05 18:27 | 27.18801 | 33.80267 | 58 ft | 0 kts | 75° |
| 2026-05-05 18:37 | 27.18801 | 33.80266 | 58 ft | 0 kts | 75° |